Time;durP1;ratioP1;P1;durP2;ratioP2;P2;SDS_P1;SDS_P2;PMS_P1;PMS_P2;Temp;Humidity;BMP_temperature;BMP_pressure;BME280_temperature;BME280_humidity;BME280_pressure;Samples;Min_cycle;Max_cycle;Signal;HPM_P1;HPM_P2
2022/12/21 05:05:58;;;;;;;2.03;1.92;;;10.10;99.90;;;;;;4974065;23;20378;-63
2022/12/21 05:08:23;;;;;;;4.13;2.17;;;10.10;99.90;;;;;;4956930;28;20192;-64
2022/12/21 05:10:50;;;;;;;4.60;2.10;;;10.10;99.90;;;;;;4974468;28;20172;-65
2022/12/21 05:13:16;;;;;;;5.05;2.00;;;10.10;99.90;;;;;;4974358;28;20630;-63
2022/12/21 05:15:41;;;;;;;2.37;2.17;;;10.10;99.90;;;;;;4957115;28;20251;-65
2022/12/21 05:18:07;;;;;;;1.40;1.30;;;10.20;99.90;;;;;;4975006;28;20192;-65
2022/12/21 05:20:33;;;;;;;1.93;1.80;;;10.20;99.90;;;;;;4974559;28;20180;-65
2022/12/21 05:22:58;;;;;;;1.33;1.23;;;10.20;99.90;;;;;;4956738;28;20176;-64
2022/12/21 05:25:24;;;;;;;2.17;1.97;;;10.20;99.90;;;;;;4975399;28;20623;-64
2022/12/21 05:27:49;;;;;;;7.90;3.00;;;10.20;99.90;;;;;;4974944;28;20180;-66
2022/12/21 05:30:15;;;;;;;1.93;1.83;;;10.20;99.90;;;;;;4974964;28;20188;-65
2022/12/21 05:32:41;;;;;;;1.30;1.30;;;10.20;99.90;;;;;;4974786;28;20207;-66
2022/12/21 05:35:07;;;;;;;2.63;1.87;;;10.20;99.90;;;;;;4956432;28;20447;-65
2022/12/21 05:37:33;;;;;;;5.40;1.25;;;10.20;99.90;;;;;;4974671;28;20204;-65
2022/12/21 05:39:59;;;;;;;2.17;1.70;;;10.20;99.90;;;;;;4957372;28;20557;-65
2022/12/21 05:42:24;;;;;;;2.80;2.60;;;10.20;99.90;;;;;;4974680;28;20176;-68
2022/12/21 05:44:50;;;;;;;1.90;1.80;;;10.10;99.90;;;;;;4974363;28;20192;-66
2022/12/21 05:47:15;;;;;;;2.20;2.00;;;10.00;99.90;;;;;;4974683;28;20168;-64
2022/12/21 05:49:41;;;;;;;1.50;1.40;;;10.00;99.90;;;;;;4974563;28;20176;-63
2022/12/21 05:52:07;;;;;;;2.13;1.97;;;10.00;99.90;;;;;;4974611;28;20262;-67
2022/12/21 05:54:32;;;;;;;1.87;1.77;;;10.00;99.90;;;;;;4974278;28;20196;-65
2022/12/21 05:56:58;;;;;;;2.40;2.07;;;9.90;99.90;;;;;;4974674;28;20168;-65
2022/12/21 05:59:23;;;;;;;3.67;2.03;;;9.90;99.90;;;;;;4974678;28;20199;-65
2022/12/21 06:01:49;;;;;;;2.20;1.80;;;9.90;99.90;;;;;;4974795;28;20230;-66
2022/12/21 06:04:14;;;;;;;1.53;1.43;;;9.90;99.90;;;;;;4974176;28;20223;-67
2022/12/21 06:06:40;;;;;;;1.77;1.67;;;9.90;99.90;;;;;;4974422;28;20183;-66
2022/12/21 06:09:07;;;;;;;4.60;1.93;;;9.90;99.90;;;;;;4974530;28;20620;-65
2022/12/21 06:11:32;;;;;;;1.60;1.50;;;9.90;99.90;;;;;;4974702;28;20187;-66
2022/12/21 06:13:58;;;;;;;2.07;1.97;;;9.90;99.90;;;;;;4974054;28;20666;-66
2022/12/21 06:16:26;;;;;;;1.93;1.83;;;9.90;99.90;;;;;;4974528;28;20573;-68
2022/12/21 06:18:53;;;;;;;4.50;1.60;;;9.90;99.90;;;;;;4974419;28;20227;-65
2022/12/21 06:21:20;;;;;;;1.88;1.77;;;9.90;99.90;;;;;;4974343;28;20526;-66
2022/12/21 06:23:46;;;;;;;2.03;1.88;;;9.90;99.90;;;;;;4974009;28;20188;-69
2022/12/21 06:26:14;;;;;;;2.10;1.90;;;9.90;99.90;;;;;;4974267;28;20559;-66
2022/12/21 06:28:40;;;;;;;2.25;2.10;;;9.90;99.90;;;;;;4974458;28;20235;-63
2022/12/21 06:31:11;;;;;;;2.90;2.13;;;9.90;99.90;;;;;;4974296;28;20650;-64
2022/12/21 06:33:37;;;;;;;2.40;1.83;;;9.90;99.90;;;;;;4976357;28;20198;-63
2022/12/21 06:36:04;;;;;;;2.45;1.60;;;9.90;99.90;;;;;;4978016;28;20534;-61
2022/12/21 06:38:31;;;;;;;2.97;1.90;;;9.90;99.90;;;;;;4978099;28;20233;-61
2022/12/21 06:41:03;;;;;;;6.38;2.00;;;9.90;99.90;;;;;;4978159;28;20172;-65
2022/12/21 06:43:31;;;;;;;1.77;1.67;;;9.90;99.90;;;;;;4977506;28;20168;-65
2022/12/21 06:45:59;;;;;;;1.85;1.55;;;9.90;99.90;;;;;;4977941;28;20601;-64
2022/12/21 06:48:26;;;;;;;3.05;2.22;;;9.90;99.90;;;;;;4977931;28;20196;-64
2022/12/21 06:50:56;;;;;;;2.10;2.00;;;9.90;99.90;;;;;;4977866;28;20534;-65
2022/12/21 06:53:24;;;;;;;1.52;1.38;;;9.90;99.90;;;;;;4977445;28;20531;-65
2022/12/21 06:55:49;;;;;;;2.67;2.47;;;9.90;99.90;;;;;;4977725;28;20250;-63
2022/12/21 06:58:15;;;;;;;3.27;2.70;;;9.90;99.90;;;;;;4977716;28;20291;-63
2022/12/21 07:00:41;;;;;;;1.90;1.80;;;9.90;99.90;;;;;;4977499;28;20888;-63
2022/12/21 07:03:08;;;;;;;1.87;1.77;;;9.90;99.90;;;;;;4977226;28;20446;-63
2022/12/21 07:05:34;;;;;;;2.15;1.77;;;9.90;99.90;;;;;;4977556;28;20447;-61
2022/12/21 07:07:59;;;;;;;1.93;1.83;;;9.90;99.90;;;;;;4960207;28;20175;-64
2022/12/21 07:10:25;;;;;;;2.20;1.83;;;10.00;99.90;;;;;;4977352;28;20176;-64
2022/12/21 07:12:51;;;;;;;3.43;1.97;;;10.00;99.90;;;;;;4977053;28;20497;-61
2022/12/21 07:15:16;;;;;;;2.03;1.90;;;10.00;99.90;;;;;;4977487;28;20447;-62
2022/12/21 07:17:42;;;;;;;1.83;1.73;;;10.00;99.90;;;;;;4977413;28;20594;-62
2022/12/21 07:20:08;;;;;;;1.93;1.83;;;10.00;99.90;;;;;;4977395;28;20176;-64
2022/12/21 07:22:34;;;;;;;1.70;1.60;;;10.00;99.90;;;;;;4976852;28;20176;-62
2022/12/21 07:24:59;;;;;;;3.27;1.67;;;10.10;99.90;;;;;;4976885;28;20200;-60
2022/12/21 07:27:25;;;;;;;1.57;1.47;;;10.10;99.90;;;;;;4977219;28;20176;-61
2022/12/21 07:29:50;;;;;;;1.30;1.30;;;10.10;99.90;;;;;;4977072;28;20263;-64
2022/12/21 07:32:16;;;;;;;1.67;1.57;;;10.20;99.90;;;;;;4976908;28;20172;-62
2022/12/21 07:34:42;;;;;;;1.60;1.60;;;10.20;99.90;;;;;;4976675;28;20312;-63
2022/12/21 07:37:07;;;;;;;2.07;1.60;;;10.20;99.90;;;;;;4977073;28;20168;-59
2022/12/21 07:39:33;;;;;;;1.73;1.63;;;10.20;99.90;;;;;;4976864;28;20214;-62
2022/12/21 07:41:58;;;;;;;1.20;1.20;;;10.30;99.90;;;;;;4976759;28;20172;-62
2022/12/21 07:44:24;;;;;;;2.20;1.73;;;10.30;99.90;;;;;;4975125;28;20253;-62
2022/12/21 07:46:51;;;;;;;1.50;1.40;;;10.30;99.90;;;;;;4976057;28;20184;-61
2022/12/21 07:49:16;;;;;;;1.27;1.17;;;10.30;99.90;;;;;;4976957;28;20176;-62
2022/12/21 07:51:42;;;;;;;1.70;1.60;;;10.30;99.90;;;;;;4959467;28;20530;-61
2022/12/21 07:54:07;;;;;;;2.77;1.30;;;10.30;99.90;;;;;;4976248;28;20266;-63
2022/12/21 07:56:33;;;;;;;1.33;1.23;;;10.30;99.90;;;;;;4976251;28;20208;-65
2022/12/21 07:58:59;;;;;;;1.30;1.20;;;10.30;99.90;;;;;;4976365;28;20749;-62
2022/12/21 08:01:26;;;;;;;1.65;1.55;;;10.30;99.90;;;;;;4976504;28;20209;-64
2022/12/21 08:03:52;;;;;;;2.25;1.73;;;10.40;99.90;;;;;;4975941;28;20200;-65
2022/12/21 08:06:18;;;;;;;1.25;1.25;;;10.30;99.90;;;;;;4958856;28;20295;-63
2022/12/21 08:08:44;;;;;;;1.53;1.43;;;10.40;99.90;;;;;;4976386;28;20212;-63
2022/12/21 08:11:13;;;;;;;1.30;1.20;;;10.40;99.90;;;;;;4976256;28;20450;-66
2022/12/21 08:13:41;;;;;;;2.97;1.45;;;10.40;99.90;;;;;;4975762;28;20263;-62
2022/12/21 08:16:08;;;;;;;1.42;1.33;;;10.40;99.90;;;;;;4976463;28;20179;-62
2022/12/21 08:18:34;;;;;;;2.28;2.08;;;10.40;99.90;;;;;;4976190;28;20295;-63
2022/12/21 08:21:00;;;;;;;1.63;1.57;;;10.40;99.90;;;;;;4976090;28;20203;-61
2022/12/21 08:23:25;;;;;;;2.37;1.67;;;10.40;99.90;;;;;;4975800;28;20201;-63
2022/12/21 08:25:52;;;;;;;2.50;2.30;;;10.40;99.90;;;;;;4976114;28;20514;-62
2022/12/21 08:28:17;;;;;;;2.92;2.28;;;10.40;99.90;;;;;;4975928;28;20180;-64
2022/12/21 08:30:43;;;;;;;2.10;1.97;;;10.40;99.90;;;;;;4976149;28;20176;-62
2022/12/21 08:33:09;;;;;;;2.60;2.40;;;10.40;99.90;;;;;;4975145;28;20662;-63
2022/12/21 08:35:36;;;;;;;1.70;1.60;;;10.40;99.90;;;;;;4961824;28;20231;-62
2022/12/21 08:38:01;;;;;;;1.80;1.70;;;10.40;99.90;;;;;;4956666;29;20528;-63
2022/12/21 08:40:27;;;;;;;2.70;2.17;;;10.40;99.90;;;;;;4956625;29;20178;-63
2022/12/21 08:42:52;;;;;;;2.10;1.77;;;10.30;99.90;;;;;;4971235;28;20183;-59
2022/12/21 08:45:18;;;;;;;1.70;1.57;;;10.30;99.90;;;;;;4975653;28;20219;-59
2022/12/21 08:47:43;;;;;;;1.90;1.80;;;10.30;99.90;;;;;;4975741;28;20199;-62
2022/12/21 08:50:09;;;;;;;2.13;1.97;;;10.30;99.90;;;;;;4975815;28;20625;-60
2022/12/21 08:52:35;;;;;;;4.10;3.50;;;10.30;99.90;;;;;;4974858;28;20194;-61
2022/12/21 08:55:00;;;;;;;1.67;1.40;;;10.30;99.90;;;;;;4974915;28;20196;-61
2022/12/21 08:57:26;;;;;;;4.90;3.37;;;10.30;99.90;;;;;;4975289;28;20183;-62
2022/12/21 08:59:52;;;;;;;1.87;1.77;;;10.30;99.90;;;;;;4975733;28;20214;-61
2022/12/21 09:02:17;;;;;;;1.70;1.60;;;10.20;99.90;;;;;;4975500;28;20184;-62
2022/12/21 09:04:43;;;;;;;3.37;2.80;;;10.30;99.90;;;;;;4974973;28;20196;-63
2022/12/21 09:07:08;;;;;;;2.07;1.90;;;10.30;99.90;;;;;;4957805;28;20282;-62
2022/12/21 09:09:34;;;;;;;1.63;1.53;;;10.40;99.90;;;;;;4975069;28;20172;-63
2022/12/21 09:12:00;;;;;;;2.50;2.13;;;10.40;99.90;;;;;;4975072;28;20646;-61
2022/12/21 09:14:28;;;;;;;2.88;1.85;;;10.40;99.90;;;;;;4957401;28;20207;-62
2022/12/21 09:16:54;;;;;;;2.00;1.90;;;10.40;99.90;;;;;;4975261;28;20611;-62
2022/12/21 09:19:20;;;;;;;2.80;2.00;;;10.50;99.90;;;;;;4975104;28;20205;-62
2022/12/21 09:21:45;;;;;;;1.40;1.30;;;10.50;99.90;;;;;;4974983;28;20436;-62
2022/12/21 09:24:11;;;;;;;2.70;1.53;;;10.50;99.90;;;;;;4974538;28;20766;-63
2022/12/21 09:26:36;;;;;;;4.57;1.90;;;10.50;99.90;;;;;;4975095;28;20172;-62
2022/12/21 09:29:02;;;;;;;1.73;1.63;;;10.50;99.90;;;;;;4975178;28;20187;-62
2022/12/21 09:31:28;;;;;;;1.70;1.60;;;10.50;99.90;;;;;;4973991;28;20184;-63
2022/12/21 09:33:54;;;;;;;1.17;1.17;;;10.50;99.90;;;;;;4974232;28;20203;-61
2022/12/21 09:36:21;;;;;;;1.30;1.30;;;10.50;99.90;;;;;;4974422;28;20235;-63
2022/12/21 09:38:47;;;;;;;2.08;1.92;;;10.50;99.90;;;;;;4974757;28;20234;-61
2022/12/21 09:41:27;;;;;;;6.22;3.80;;;10.40;99.90;;;;;;4974663;28;20207;-62
2022/12/21 09:44:27;;;;;;;1.73;1.50;;;10.40;99.90;;;;;;4972195;28;20231;-61
2022/12/21 09:46:57;;;;;;;3.03;1.55;;;10.40;99.90;;;;;;4972552;28;20193;-63
2022/12/21 09:49:34;;;;;;;4.63;2.20;;;10.40;99.90;;;;;;4972431;28;20179;-61
2022/12/21 09:52:03;;;;;;;5.88;1.98;;;10.40;99.90;;;;;;4973018;28;20177;-62
2022/12/21 09:54:42;;;;;;;4.43;2.47;;;10.40;99.90;;;;;;4971792;28;20211;-61
2022/12/21 09:57:13;;;;;;;2.80;2.58;;;10.40;99.90;;;;;;4953762;28;20683;-61
2022/12/21 09:59:40;;;;;;;1.73;1.63;;;10.40;99.90;;;;;;4971510;28;20338;-63
2022/12/21 10:02:34;;;;;;;2.78;1.42;;;10.40;99.90;;;;;;4972572;28;20183;-61
2022/12/21 10:05:23;;;;;;;2.17;1.70;;;10.40;99.90;;;;;;4969659;28;20239;-64
2022/12/21 10:08:01;;;;;;;4.10;2.42;;;10.40;99.90;;;;;;4974298;28;20181;-61
2022/12/21 10:11:38;;;;;;;1.60;1.50;;;10.50;99.90;;;;;;4977983;28;20195;-60
2022/12/21 10:14:10;;;;;;;2.10;1.90;;;10.50;99.90;;;;;;4875316;29;20337;-62
2022/12/21 10:16:45;;;;;;;3.42;2.10;;;10.50;99.90;;;;;;4881568;29;20177;-62
2022/12/21 10:19:29;;;;;;;1.45;1.35;;;10.60;99.90;;;;;;4936394;28;20704;-63
2022/12/21 10:21:57;;;;;;;4.97;1.60;;;10.70;99.90;;;;;;4978517;28;20177;-62
2022/12/21 10:24:34;;;;;;;2.50;2.22;;;10.80;99.90;;;;;;4977533;28;20557;-62
2022/12/21 10:27:13;;;;;;;2.05;1.83;;;11.00;99.90;;;;;;4978445;28;20256;-62
2022/12/21 10:29:41;;;;;;;2.80;1.23;;;11.00;99.90;;;;;;4978336;28;20233;-62
2022/12/21 10:32:12;;;;;;;2.30;2.10;;;11.10;99.90;;;;;;4978141;28;20577;-62
2022/12/21 10:34:46;;;;;;;1.70;1.60;;;11.10;99.90;;;;;;4977280;28;21018;-62
2022/12/21 10:37:15;;;;;;;1.55;1.30;;;11.10;99.90;;;;;;4978229;28;20396;-62
2022/12/21 10:39:41;;;;;;;1.67;1.57;;;11.10;99.90;;;;;;4978088;28;20282;-62
2022/12/21 10:42:13;;;;;;;1.77;1.67;;;11.10;99.90;;;;;;4978102;28;20392;-62
2022/12/21 10:44:40;;;;;;;1.53;1.50;;;11.10;99.90;;;;;;4977208;28;20205;-63
2022/12/21 10:47:17;;;;;;;1.90;1.80;;;11.10;99.90;;;;;;4977868;28;20928;-62
2022/12/21 10:49:54;;;;;;;6.80;1.60;;;11.10;99.90;;;;;;4977713;28;20384;-62
2022/12/21 10:52:33;;;;;;;1.60;1.50;;;11.10;99.90;;;;;;4977691;28;20379;-61
2022/12/21 10:54:58;;;;;;;2.13;1.80;;;11.20;99.90;;;;;;4977144;28;20424;-62
2022/12/21 10:57:32;;;;;;;1.50;1.50;;;11.30;99.90;;;;;;4977410;28;20497;-63
2022/12/21 11:00:20;;;;;;;1.90;1.48;;;11.30;99.90;;;;;;4977636;28;20256;-62
2022/12/21 11:02:47;;;;;;;1.60;1.50;;;11.30;99.90;;;;;;4977376;28;20532;-64
2022/12/21 11:05:34;;;;;;;3.53;1.50;;;11.50;99.90;;;;;;4977215;28;20515;-63
2022/12/21 11:08:21;;;;;;;1.27;1.13;;;11.70;99.90;;;;;;4977684;28;20780;-63
2022/12/21 11:10:52;;;;;;;1.40;1.40;;;11.80;99.90;;;;;;4977325;28;20413;-63
2022/12/21 11:13:20;;;;;;;2.40;1.40;;;12.00;99.90;;;;;;4977176;28;20414;-63
2022/12/21 11:16:06;;;;;;;1.13;1.13;;;12.00;99.90;;;;;;4977246;28;20470;-62
2022/12/21 11:18:38;;;;;;;0.90;0.90;;;12.10;99.90;;;;;;4977542;28;20834;-61
2022/12/21 11:21:11;;;;;;;1.30;1.20;;;12.20;99.90;;;;;;4977306;28;20418;-62
2022/12/21 11:23:37;;;;;;;1.07;0.97;;;12.20;99.90;;;;;;4976788;28;20493;-68
2022/12/21 11:26:11;;;;;;;1.10;1.03;;;12.20;99.90;;;;;;4977165;28;20414;-67
2022/12/21 11:28:37;;;;;;;1.10;1.10;;;12.30;99.90;;;;;;4977219;28;20167;-64
2022/12/21 11:31:05;;;;;;;1.20;1.20;;;12.30;99.90;;;;;;4976874;28;20426;-64
2022/12/21 11:33:32;;;;;;;1.63;1.53;;;12.30;99.90;;;;;;4976527;28;20179;-65
2022/12/21 11:36:10;;;;;;;2.97;2.77;;;12.50;99.90;;;;;;4976918;28;20888;-62
2022/12/21 11:38:37;;;;;;;1.00;1.00;;;12.50;99.90;;;;;;4959590;28;20592;-62
2022/12/21 11:41:17;;;;;;;1.37;1.17;;;12.60;99.90;;;;;;4976966;28;20421;-62
2022/12/21 11:43:48;;;;;;;1.20;1.20;;;12.60;99.90;;;;;;4976461;28;20422;-61
2022/12/21 11:46:39;;;;;;;3.13;2.20;;;12.70;99.90;;;;;;4976984;28;20479;-62
2022/12/21 11:49:44;;;;;;;1.33;1.30;;;12.70;99.90;;;;;;4969536;28;20405;-62
2022/12/21 11:52:12;;;;;;;1.33;1.00;;;12.70;99.90;;;;;;4976743;28;20775;-62
2022/12/21 11:55:08;;;;;;;1.53;1.40;;;12.70;99.90;;;;;;4976411;28;20520;-63
2022/12/21 11:57:56;;;;;;;1.10;1.10;;;12.70;99.90;;;;;;4976529;28;20513;-61
2022/12/21 12:00:23;;;;;;;1.23;1.10;;;12.70;99.90;;;;;;4959328;28;20443;-62
2022/12/21 12:03:07;;;;;;;1.50;1.50;;;12.80;99.90;;;;;;4958883;28;20408;-61
2022/12/21 12:05:35;;;;;;;1.50;1.40;;;12.80;99.90;;;;;;4976203;28;20786;-61
2022/12/21 12:08:10;;;;;;;1.60;1.50;;;12.70;99.90;;;;;;4971037;28;20543;-61
2022/12/21 12:11:00;;;;;;;2.07;1.87;;;12.80;99.90;;;;;;4966444;28;20425;-62
2022/12/21 12:13:35;;;;;;;1.63;1.53;;;12.90;99.90;;;;;;4966013;28;20422;-70
2022/12/21 12:16:17;;;;;;;1.20;1.13;;;12.90;99.90;;;;;;4966720;28;20385;-70
2022/12/21 12:18:52;;;;;;;1.40;1.13;;;12.90;99.90;;;;;;4968714;28;20450;-71
2022/12/21 12:21:49;;;;;;;1.07;1.07;;;13.00;99.90;;;;;;4966346;28;20398;-69
2022/12/21 12:24:47;;;;;;;1.27;1.27;;;13.10;99.90;;;;;;4965988;28;20428;-69
2022/12/21 12:27:41;;;;;;;1.13;1.13;;;13.10;99.90;;;;;;4966112;28;20411;-70
2022/12/21 12:30:52;;;;;;;1.90;1.80;;;13.20;99.90;;;;;;4967995;28;20993;-71
2022/12/21 12:33:41;;;;;;;1.27;1.27;;;13.10;99.90;;;;;;4950531;28;20487;-69
2022/12/21 12:36:46;;;;;;;1.70;1.40;;;13.10;99.90;;;;;;4972368;28;20736;-70
2022/12/21 12:39:40;;;;;;;0.90;0.90;;;13.10;99.90;;;;;;4971509;28;20513;-71
2022/12/21 12:42:20;;;;;;;1.70;1.60;;;13.20;99.90;;;;;;4970708;28;20423;-70
2022/12/21 12:45:09;;;;;;;1.60;1.40;;;13.20;99.90;;;;;;4975910;28;20523;-70
2022/12/21 12:48:10;;;;;;;1.60;1.37;;;13.20;99.90;;;;;;4899250;29;20478;-71
2022/12/21 12:50:40;;;;;;;1.50;1.40;;;13.20;99.90;;;;;;4841943;29;20400;-70
2022/12/21 12:53:26;;;;;;;1.50;1.37;;;13.20;99.90;;;;;;4842000;29;20473;-70
2022/12/21 12:56:22;;;;;;;1.67;1.37;;;13.20;99.90;;;;;;4832589;29;20425;-69
2022/12/21 12:59:26;;;;;;;4.60;1.30;;;13.20;99.90;;;;;;4822232;29;20889;-70
2022/12/21 13:02:03;;;;;;;1.23;1.13;;;13.10;99.90;;;;;;4835346;29;20569;-70
2022/12/21 13:04:37;;;;;;;1.10;1.10;;;13.10;99.90;;;;;;4823173;29;20469;-69
2022/12/21 13:07:23;;;;;;;1.47;1.20;;;13.10;99.90;;;;;;4840167;29;20440;-69
2022/12/21 13:10:36;;;;;;;1.60;1.50;;;13.10;99.90;;;;;;4840055;29;20433;-69
2022/12/21 13:13:17;;;;;;;1.00;0.87;;;13.10;99.90;;;;;;4822110;29;20484;-69
2022/12/21 13:15:57;;;;;;;2.20;1.00;;;13.10;99.90;;;;;;4840557;29;20459;-70
2022/12/21 13:18:35;;;;;;;1.30;1.30;;;13.10;99.90;;;;;;4840714;29;20469;-71
2022/12/21 13:21:01;;;;;;;1.30;1.20;;;13.10;99.90;;;;;;4841221;29;20426;-70
2022/12/21 13:23:40;;;;;;;0.80;0.80;;;13.10;99.90;;;;;;4840658;29;20432;-70
2022/12/21 13:26:20;;;;;;;4.07;1.23;;;13.00;99.90;;;;;;4878520;29;20419;-69
2022/12/21 13:28:57;;;;;;;1.50;1.10;;;13.00;99.90;;;;;;4974978;28;20433;-69
2022/12/21 13:31:29;;;;;;;1.87;1.77;;;13.00;99.90;;;;;;4974697;28;20393;-71
2022/12/21 13:34:03;;;;;;;2.37;2.17;;;13.00;99.90;;;;;;4973686;28;20447;-70
2022/12/21 13:36:39;;;;;;;1.30;1.20;;;12.90;99.90;;;;;;4973413;28;20443;-68
2022/12/21 13:39:17;;;;;;;2.97;1.40;;;12.90;99.90;;;;;;4974246;28;20921;-69
2022/12/21 13:41:51;;;;;;;1.57;1.33;;;12.80;99.90;;;;;;4974096;28;20920;-69
2022/12/21 13:44:35;;;;;;;1.10;1.00;;;12.80;99.90;;;;;;4956802;28;20532;-69
2022/12/21 13:47:02;;;;;;;1.30;1.30;;;12.80;99.90;;;;;;4974533;28;20461;-69
2022/12/21 13:49:55;;;;;;;1.27;1.27;;;12.80;99.90;;;;;;4974727;28;20441;-69
2022/12/21 13:52:31;;;;;;;1.70;1.50;;;12.80;99.90;;;;;;4971953;28;20955;-69
2022/12/21 13:55:37;;;;;;;1.33;1.23;;;12.80;99.90;;;;;;4974771;28;20472;-70
2022/12/21 13:58:21;;;;;;;0.97;0.97;;;12.90;99.90;;;;;;4936721;28;20451;-69
2022/12/21 14:01:05;;;;;;;1.40;1.23;;;13.00;99.90;;;;;;4975310;28;20410;-69
2022/12/21 14:03:48;;;;;;;1.40;1.30;;;13.10;99.90;;;;;;4975155;28;20416;-70
2022/12/21 14:06:35;;;;;;;1.43;1.33;;;13.00;99.90;;;;;;4974424;28;20441;-69
2022/12/21 14:09:31;;;;;;;0.90;0.90;;;13.00;99.90;;;;;;4975557;28;20433;-68
2022/12/21 14:12:18;;;;;;;1.33;1.23;;;12.90;99.90;;;;;;4974908;28;20433;-70
2022/12/21 14:15:21;;;;;;;1.43;1.07;;;12.80;99.90;;;;;;4974432;28;20444;-70
2022/12/21 14:17:48;;;;;;;1.50;1.40;;;12.70;99.90;;;;;;4974376;28;20806;-69
2022/12/21 14:20:43;;;;;;;1.97;1.60;;;12.60;99.90;;;;;;4975158;28;20422;-70
2022/12/21 14:23:28;;;;;;;1.73;1.63;;;12.50;99.90;;;;;;4962990;28;20541;-68
2022/12/21 14:25:56;;;;;;;1.50;1.40;;;12.40;99.90;;;;;;4976689;28;20422;-69
2022/12/21 14:28:27;;;;;;;1.80;1.30;;;12.20;99.90;;;;;;4977347;28;20501;-69
2022/12/21 14:31:02;;;;;;;1.70;1.60;;;12.20;99.90;;;;;;4976941;28;20180;-69
2022/12/21 14:33:50;;;;;;;1.03;1.00;;;12.10;99.90;;;;;;4976630;28;20409;-69
2022/12/21 14:36:15;;;;;;;1.83;1.35;;;12.10;99.90;;;;;;4975031;28;20400;-69
2022/12/21 14:38:42;;;;;;;2.93;1.90;;;12.00;99.90;;;;;;4974371;28;20522;-68
2022/12/21 14:41:07;;;;;;;2.55;2.28;;;12.00;99.90;;;;;;4973934;28;20215;-68
2022/12/21 14:44:12;;;;;;;1.50;1.40;;;11.90;99.90;;;;;;4973761;28;20623;-70
2022/12/21 14:46:40;;;;;;;1.70;1.60;;;11.90;99.90;;;;;;4974232;28;20176;-70
2022/12/21 14:49:28;;;;;;;1.17;1.13;;;11.80;99.90;;;;;;4974001;28;20230;-69
2022/12/21 14:51:56;;;;;;;1.25;1.10;;;11.90;99.90;;;;;;4973116;28;20458;-69
2022/12/21 14:54:36;;;;;;;1.38;1.27;;;11.90;99.90;;;;;;4974559;28;20202;-69
2022/12/21 14:57:08;;;;;;;1.38;1.38;;;11.90;99.90;;;;;;4977555;28;20271;-69
2022/12/21 14:59:58;;;;;;;3.30;2.00;;;11.90;99.90;;;;;;4977333;28;20200;-69
2022/12/21 15:02:54;;;;;;;0.98;0.98;;;12.00;99.90;;;;;;4976989;28;20184;-67
2022/12/21 15:05:26;;;;;;;1.47;1.07;;;11.90;99.90;;;;;;4956793;28;20296;-67
2022/12/21 15:07:57;;;;;;;3.43;1.70;;;12.00;99.90;;;;;;4977371;28;20432;-68
2022/12/21 15:10:33;;;;;;;1.40;1.30;;;11.90;99.90;;;;;;4977655;28;20422;-67
2022/12/21 15:12:59;;;;;;;1.42;1.33;;;11.80;99.90;;;;;;4977184;28;20170;-68
2022/12/21 15:15:38;;;;;;;1.13;1.10;;;11.80;99.90;;;;;;4977600;28;20205;-67
2022/12/21 15:18:22;;;;;;;1.30;1.20;;;11.70;99.90;;;;;;4978268;28;20475;-69
2022/12/21 15:20:53;;;;;;;2.22;1.85;;;11.60;99.90;;;;;;4977221;28;20239;-67
2022/12/21 15:23:30;;;;;;;1.13;1.03;;;11.50;99.90;;;;;;4977166;28;20213;-68
2022/12/21 15:26:23;;;;;;;1.30;1.20;;;11.50;99.90;;;;;;4977427;28;20724;-66
2022/12/21 15:28:52;;;;;;;2.57;1.33;;;11.50;99.90;;;;;;4960050;28;20512;-68
2022/12/21 15:31:23;;;;;;;1.10;1.00;;;11.50;99.90;;;;;;4977031;28;20413;-69
2022/12/21 15:33:51;;;;;;;1.13;1.13;;;11.50;99.90;;;;;;4963533;28;20988;-69
2022/12/21 15:36:24;;;;;;;1.50;1.40;;;11.50;99.90;;;;;;4976998;28;20413;-68
2022/12/21 15:38:52;;;;;;;1.15;1.13;;;11.40;99.90;;;;;;4976306;28;20929;-70
2022/12/21 15:41:21;;;;;;;2.47;1.20;;;11.50;99.90;;;;;;4975896;28;20197;-68
2022/12/21 15:44:05;;;;;;;1.38;1.38;;;11.50;99.90;;;;;;4976177;28;20467;-68
2022/12/21 15:46:42;;;;;;;1.63;1.52;;;11.60;99.90;;;;;;4975478;28;20204;-68
2022/12/21 15:49:10;;;;;;;1.25;1.15;;;11.60;99.90;;;;;;4975307;28;20212;-68
2022/12/21 15:51:41;;;;;;;1.30;1.17;;;11.70;99.90;;;;;;4976211;28;20206;-66
2022/12/21 15:54:22;;;;;;;1.30;1.20;;;11.80;99.90;;;;;;4976277;28;20466;-67
2022/12/21 15:56:54;;;;;;;1.25;1.20;;;11.80;99.90;;;;;;4976637;28;20570;-66
2022/12/21 15:59:34;;;;;;;2.73;1.90;;;11.80;99.90;;;;;;4976806;28;20236;-67
2022/12/21 16:02:00;;;;;;;1.30;1.30;;;11.90;99.90;;;;;;4976779;28;20491;-71
2022/12/21 16:04:26;;;;;;;1.50;1.33;;;11.90;99.90;;;;;;4975676;28;20440;-69
2022/12/21 16:06:55;;;;;;;1.60;1.40;;;11.90;99.90;;;;;;4975359;28;20768;-69
2022/12/21 16:09:27;;;;;;;1.70;1.35;;;11.90;99.90;;;;;;4976371;28;20773;-69
2022/12/21 16:11:52;;;;;;;1.38;1.20;;;11.80;99.90;;;;;;4976319;28;20180;-72
2022/12/21 16:14:29;;;;;;;2.20;1.90;;;11.80;99.90;;;;;;4975488;28;20200;-74
2022/12/21 16:16:56;;;;;;;1.50;1.50;;;11.80;99.90;;;;;;4976690;28;20182;-71
2022/12/21 16:19:36;;;;;;;2.30;1.27;;;11.70;99.90;;;;;;4975971;28;20814;-72
2022/12/21 16:22:06;;;;;;;2.13;1.57;;;11.70;99.90;;;;;;4975962;28;20184;-71
2022/12/21 16:24:33;;;;;;;2.27;2.13;;;11.60;99.90;;;;;;4958103;28;20447;-70
2022/12/21 16:27:02;;;;;;;2.38;2.17;;;11.50;99.90;;;;;;4976126;28;20396;-72
2022/12/21 16:29:29;;;;;;;1.52;1.42;;;11.40;99.90;;;;;;4976174;28;20180;-75
2022/12/21 16:31:55;;;;;;;1.70;1.60;;;11.40;99.90;;;;;;4976455;28;20201;-72
2022/12/21 16:34:48;;;;;;;4.75;1.90;;;11.30;99.90;;;;;;4975501;28;20218;-71
2022/12/21 16:37:16;;;;;;;1.67;1.40;;;11.30;99.90;;;;;;4970039;28;20594;-74
2022/12/21 16:40:12;;;;;;;2.55;2.35;;;11.30;99.90;;;;;;4975989;28;20279;-74
2022/12/21 16:42:39;;;;;;;1.70;1.60;;;11.30;99.90;;;;;;4970153;28;20181;-74
2022/12/21 16:45:26;;;;;;;1.67;1.58;;;11.30;99.90;;;;;;4958175;28;20674;-74
2022/12/21 16:48:11;;;;;;;2.55;1.65;;;11.30;99.90;;;;;;4975709;28;20187;-74
2022/12/21 16:50:54;;;;;;;1.58;1.48;;;11.40;99.90;;;;;;4975582;28;20257;-74
2022/12/21 16:53:35;;;;;;;1.75;1.65;;;11.30;99.90;;;;;;4957760;28;20538;-70
2022/12/21 16:56:20;;;;;;;2.03;1.92;;;11.40;99.90;;;;;;4975795;28;20223;-71
2022/12/21 16:58:53;;;;;;;1.35;1.25;;;11.40;99.90;;;;;;4975188;28;20199;-69
2022/12/21 17:01:25;;;;;;;1.55;1.45;;;11.50;99.90;;;;;;4975743;28;20628;-71
2022/12/21 17:03:58;;;;;;;1.55;1.45;;;11.50;99.90;;;;;;4974571;28;20196;-70
2022/12/21 17:06:33;;;;;;;2.38;2.17;;;11.50;99.90;;;;;;4975279;28;20180;-71
2022/12/21 17:09:00;;;;;;;2.05;1.88;;;11.50;99.90;;;;;;4975606;28;20637;-71
2022/12/21 17:11:26;;;;;;;2.00;1.30;;;11.50;99.90;;;;;;4975445;28;20193;-70
2022/12/21 17:13:53;;;;;;;1.85;1.75;;;11.50;99.90;;;;;;4956905;28;20226;-71
2022/12/21 17:16:37;;;;;;;1.40;1.30;;;11.60;99.90;;;;;;4974883;28;20202;-72
2022/12/21 17:19:19;;;;;;;1.70;1.60;;;11.60;99.90;;;;;;4974919;28;20192;-73
2022/12/21 17:22:01;;;;;;;1.70;1.60;;;11.60;99.90;;;;;;4975133;28;20183;-71
2022/12/21 17:24:34;;;;;;;1.80;1.70;;;11.70;99.90;;;;;;4974778;28;20188;-70
2022/12/21 17:27:04;;;;;;;1.40;1.30;;;11.60;99.90;;;;;;4972546;28;20184;-70
2022/12/21 17:29:29;;;;;;;2.30;1.55;;;11.70;99.90;;;;;;4945380;28;20179;-70
2022/12/21 17:31:56;;;;;;;1.57;1.47;;;11.60;99.90;;;;;;4946063;29;20255;-70
2022/12/21 17:34:29;;;;;;;1.67;1.20;;;11.50;99.90;;;;;;4967929;28;20196;-70
2022/12/21 17:36:55;;;;;;;1.13;1.13;;;11.50;99.90;;;;;;4975091;28;20188;-69
2022/12/21 17:39:22;;;;;;;1.17;1.10;;;11.40;99.90;;;;;;4974648;28;20227;-70
2022/12/21 17:41:48;;;;;;;3.95;1.50;;;11.30;99.90;;;;;;4975173;28;20176;-69
2022/12/21 17:44:14;;;;;;;1.50;1.50;;;11.20;99.90;;;;;;4974008;28;20730;-70
2022/12/21 17:46:42;;;;;;;2.23;1.47;;;11.10;99.90;;;;;;4974691;28;20180;-72
2022/12/21 17:49:15;;;;;;;1.27;1.25;;;11.00;99.90;;;;;;4974474;28;20184;-69
2022/12/21 17:51:41;;;;;;;1.38;1.27;;;11.00;99.90;;;;;;4957112;28;20212;-70
2022/12/21 17:54:13;;;;;;;1.38;1.33;;;10.90;99.90;;;;;;4974031;28;20231;-71
2022/12/21 17:56:40;;;;;;;2.00;1.75;;;10.80;99.90;;;;;;4974412;28;20168;-68
2022/12/21 17:59:07;;;;;;;1.50;1.40;;;10.80;99.90;;;;;;4974063;28;20212;-72
2022/12/21 18:01:33;;;;;;;1.38;1.30;;;10.80;99.90;;;;;;4974570;28;20577;-73
2022/12/21 18:03:59;;;;;;;4.25;2.40;;;10.80;99.90;;;;;;4974209;28;20207;-72
2022/12/21 18:06:27;;;;;;;2.85;1.48;;;10.80;99.90;;;;;;4974804;28;20192;-70
2022/12/21 18:08:53;;;;;;;2.15;2.05;;;10.80;99.90;;;;;;4974498;28;20270;-73
2022/12/21 18:11:21;;;;;;;1.43;1.43;;;10.80;99.90;;;;;;4974642;28;20256;-71
2022/12/21 18:13:47;;;;;;;1.70;1.55;;;10.80;99.90;;;;;;4957667;28;20200;-65
2022/12/21 18:16:20;;;;;;;1.85;1.75;;;10.80;99.90;;;;;;4974579;28;20583;-70
2022/12/21 18:18:46;;;;;;;1.80;1.70;;;10.90;99.90;;;;;;4974810;28;20272;-68
2022/12/21 18:21:18;;;;;;;1.95;1.63;;;10.90;99.90;;;;;;4974382;28;20203;-68
2022/12/21 18:23:44;;;;;;;1.90;1.80;;;10.90;99.90;;;;;;4973556;28;20530;-72